createdAt,value
2019-05-26T00:01:38.653Z,92.98
2019-05-26T00:04:10.643Z,92.52
2019-05-26T00:06:42.606Z,93.12
2019-05-26T00:09:14.609Z,93.22
2019-05-26T00:11:46.579Z,93.05
2019-05-26T00:14:18.635Z,92.88
2019-05-26T00:16:50.596Z,92.98
2019-05-26T00:19:22.587Z,93.12
2019-05-26T00:21:54.557Z,93.15
2019-05-26T00:24:26.576Z,93.27
2019-05-26T00:26:58.573Z,93.00
2019-05-26T00:29:30.552Z,93.08
2019-05-26T00:32:02.505Z,92.95
2019-05-26T00:34:34.493Z,92.30
2019-05-26T00:37:06.483Z,92.15
2019-05-26T00:39:38.545Z,91.76
2019-05-26T00:42:10.529Z,91.40
2019-05-26T00:44:42.543Z,91.64
2019-05-26T00:47:14.542Z,91.81
2019-05-26T00:49:46.598Z,92.02
2019-05-26T00:52:18.566Z,92.32
2019-05-26T00:54:50.561Z,92.60
2019-05-26T00:57:22.516Z,92.58
2019-05-26T00:59:54.496Z,91.87
2019-05-26T01:02:26.460Z,91.50
2019-05-26T01:04:58.427Z,91.19
2019-05-26T01:07:30.408Z,91.91
2019-05-26T01:10:02.459Z,92.32
2019-05-26T01:12:34.417Z,92.43
2019-05-26T01:15:07.021Z,92.33
2019-05-26T01:17:39.037Z,92.32
2019-05-26T01:20:11.029Z,92.32
2019-05-26T01:22:43.013Z,92.02
2019-05-26T01:25:15.048Z,92.41
2019-05-26T01:27:47.203Z,92.10
2019-05-26T01:30:23.627Z,92.31
2019-05-26T01:32:55.670Z,92.65
2019-05-26T01:35:27.641Z,92.60
2019-05-26T01:37:59.922Z,92.59
2019-05-26T01:40:36.753Z,92.52
2019-05-26T01:43:08.810Z,92.67
2019-05-26T01:45:40.849Z,92.16
2019-05-26T01:48:12.846Z,92.42
2019-05-26T01:50:44.949Z,92.41
2019-05-26T01:53:16.942Z,92.62
2019-05-26T01:55:48.962Z,92.71
2019-05-26T01:58:20.927Z,92.63
2019-05-26T02:00:52.901Z,92.66
2019-05-26T02:03:24.862Z,93.05
2019-05-26T02:05:56.818Z,93.03
2019-05-26T02:08:38.762Z,92.79
2019-05-26T02:11:02.970Z,92.22
2019-05-26T02:13:34.989Z,92.19
2019-05-26T02:16:06.959Z,91.75
2019-05-26T02:18:38.925Z,92.21
2019-05-26T02:21:14.691Z,91.74
2019-05-26T02:23:44.786Z,91.70
2019-05-26T02:26:16.733Z,91.07
2019-05-26T02:28:48.816Z,91.58
2019-05-26T02:31:20.716Z,91.79
2019-05-26T02:33:52.714Z,91.77
2019-05-26T02:36:24.701Z,91.64
2019-05-26T02:39:02.469Z,91.72
2019-05-26T02:41:33.287Z,90.52
2019-05-26T02:44:05.304Z,90.22
2019-05-26T02:46:37.374Z,90.89
2019-05-26T02:49:09.345Z,91.26
2019-05-26T02:51:41.330Z,90.62
2019-05-26T02:54:13.320Z,91.38
2019-05-26T02:56:45.313Z,91.92
2019-05-26T02:59:17.328Z,91.66
2019-05-26T03:02:02.090Z,91.60
2019-05-26T03:04:23.246Z,92.00
2019-05-26T03:06:56.323Z,92.41
2019-05-26T03:09:28.760Z,92.31
2019-05-26T03:12:02.353Z,92.03
2019-05-26T03:14:34.369Z,91.82
2019-05-26T03:17:06.345Z,92.61
2019-05-26T03:19:40.168Z,92.76
2019-05-26T03:22:13.963Z,92.68
2019-05-26T03:24:47.661Z,92.36
2019-05-26T03:27:19.756Z,91.57
2019-05-26T03:29:51.893Z,91.18
2019-05-26T03:32:23.851Z,91.07
2019-05-26T03:34:55.870Z,91.48
2019-05-26T03:37:27.843Z,91.54
2019-05-26T03:39:59.888Z,90.73
2019-05-26T03:42:31.849Z,90.29
2019-05-26T03:45:04.996Z,90.54
2019-05-26T03:47:36.970Z,90.41
2019-05-26T03:50:08.971Z,91.24
2019-05-26T03:52:40.969Z,91.09
2019-05-26T03:55:12.935Z,91.70
2019-05-26T03:57:44.920Z,91.54
2019-05-26T04:00:16.963Z,91.88
2019-05-26T04:02:48.926Z,92.06
2019-05-26T04:05:20.908Z,92.29
2019-05-26T04:07:52.876Z,91.36
2019-05-26T04:10:24.872Z,91.78
2019-05-26T04:12:56.896Z,91.91
2019-05-26T04:15:28.908Z,92.13
2019-05-26T04:18:00.909Z,91.97
2019-05-26T04:20:32.891Z,92.06
2019-05-26T04:23:04.930Z,91.46
2019-05-26T04:25:36.909Z,91.33
2019-05-26T04:28:08.874Z,91.56
2019-05-26T04:30:40.867Z,91.26
2019-05-26T04:33:12.849Z,91.16
2019-05-26T04:35:44.851Z,90.77
2019-05-26T04:38:16.880Z,91.17
2019-05-26T04:40:48.830Z,90.74
2019-05-26T04:43:20.812Z,91.07
2019-05-26T04:45:52.781Z,90.70
2019-05-26T04:48:24.781Z,90.46
2019-05-26T04:50:56.754Z,90.85
2019-05-26T04:53:28.754Z,90.29
2019-05-26T04:56:00.744Z,90.52
2019-05-26T04:58:32.743Z,89.69
2019-05-26T05:01:04.701Z,90.17
2019-05-26T05:03:36.666Z,90.41
2019-05-26T05:06:08.655Z,90.47
2019-05-26T05:08:40.688Z,89.58
2019-05-26T05:11:12.702Z,89.67
2019-05-26T05:13:44.690Z,89.48
2019-05-26T05:16:16.660Z,89.81
2019-05-26T05:18:48.682Z,89.28
2019-05-26T05:21:20.661Z,89.71
2019-05-26T05:23:52.617Z,88.64
2019-05-26T05:26:24.583Z,89.52
2019-05-26T05:28:56.577Z,88.90
2019-05-26T05:31:28.540Z,88.59
2019-05-26T05:34:00.536Z,88.43
2019-05-26T05:36:32.570Z,87.41
2019-05-26T05:39:06.584Z,88.41
2019-05-26T05:41:38.540Z,88.31
2019-05-26T05:44:10.547Z,87.23
2019-05-26T05:46:42.658Z,88.03
2019-05-26T05:49:14.654Z,86.25
2019-05-26T05:51:46.643Z,85.40
2019-05-26T05:54:18.622Z,87.32
2019-05-26T05:56:50.603Z,86.94
2019-05-26T05:59:22.582Z,86.90
2019-05-26T06:01:54.583Z,87.07
2019-05-26T06:04:26.633Z,87.09
2019-05-26T06:06:58.588Z,87.25
2019-05-26T06:09:30.580Z,87.10
2019-05-26T06:12:02.574Z,85.48
2019-05-26T06:14:34.613Z,84.20
2019-05-26T06:17:10.335Z,81.38
2019-05-26T06:19:40.544Z,81.15
2019-05-26T06:22:12.578Z,78.96
2019-05-26T06:24:44.565Z,79.07
2019-05-26T06:27:16.542Z,78.97
2019-05-26T06:29:58.592Z,78.59
2019-05-26T06:32:22.433Z,75.62
2019-05-26T06:34:54.452Z,73.03
2019-05-26T06:37:26.426Z,70.89
2019-05-26T06:39:58.490Z,67.86
2019-05-26T06:42:30.499Z,67.82
2019-05-26T06:45:02.757Z,66.99
2019-05-26T06:47:34.741Z,64.66
2019-05-26T06:50:07.240Z,62.55
2019-05-26T06:52:39.234Z,61.11
2019-05-26T06:55:11.448Z,62.18
2019-05-26T06:57:43.435Z,60.26
2019-05-26T07:00:15.547Z,59.61
2019-05-26T07:02:47.569Z,58.49
2019-05-26T07:05:19.616Z,59.88
2019-05-26T07:07:51.873Z,59.00
2019-05-26T07:10:23.809Z,58.24
2019-05-26T07:12:55.819Z,57.21
2019-05-26T07:15:27.783Z,57.24
2019-05-26T07:17:59.789Z,56.54
2019-05-26T07:20:31.747Z,54.14
2019-05-26T07:23:04.654Z,54.98
2019-05-26T07:25:37.643Z,55.34
2019-05-26T07:28:09.659Z,55.22
2019-05-26T07:30:41.616Z,54.96
2019-05-26T07:33:15.206Z,53.94
2019-05-26T07:35:49.789Z,54.66
2019-05-26T07:38:21.128Z,53.29
2019-05-26T07:40:53.129Z,53.24
2019-05-26T07:43:27.986Z,52.61
2019-05-26T07:45:59.046Z,51.97
2019-05-26T07:48:35.367Z,50.44
2019-05-26T07:51:05.035Z,50.28
2019-05-26T07:53:37.086Z,49.69
2019-05-26T07:56:09.093Z,49.26
2019-05-26T07:58:41.126Z,50.38
2019-05-26T08:01:13.127Z,50.12
2019-05-26T08:03:45.125Z,49.58
2019-05-26T08:06:17.152Z,49.94
2019-05-26T08:08:49.182Z,50.09
2019-05-26T08:11:21.149Z,49.76
2019-05-26T08:13:53.147Z,51.34
2019-05-26T08:16:25.167Z,50.06
2019-05-26T08:18:57.174Z,51.59
2019-05-26T08:21:29.217Z,51.28
2019-05-26T08:24:01.282Z,51.54
2019-05-26T08:26:33.257Z,50.15
2019-05-26T08:29:05.248Z,50.32
2019-05-26T08:31:37.254Z,50.94
2019-05-26T08:34:09.244Z,51.63
2019-05-26T08:36:41.241Z,50.92
2019-05-26T08:39:13.321Z,51.48
2019-05-26T08:41:45.331Z,50.94
2019-05-26T08:44:17.392Z,50.30
2019-05-26T08:46:49.360Z,51.42
2019-05-26T08:49:21.424Z,50.68
2019-05-26T08:51:53.423Z,50.91
2019-05-26T08:54:25.442Z,50.78
2019-05-26T08:56:57.422Z,51.06
2019-05-26T08:59:29.492Z,51.86
2019-05-26T09:02:01.511Z,50.93
2019-05-26T09:04:33.518Z,50.24
2019-05-26T09:07:05.570Z,49.51
2019-05-26T09:09:37.622Z,48.34
2019-05-26T09:12:09.664Z,49.46
2019-05-26T09:14:41.704Z,48.96
2019-05-26T09:17:13.726Z,46.97
2019-05-26T09:19:45.741Z,47.53
2019-05-26T09:22:17.775Z,47.62
2019-05-26T09:24:49.823Z,49.32
2019-05-26T09:27:21.850Z,48.79
2019-05-26T09:29:53.925Z,48.16
2019-05-26T09:32:26.030Z,48.73
2019-05-26T09:34:58.038Z,49.60
2019-05-26T09:37:30.074Z,46.25
2019-05-26T09:40:02.342Z,48.01
2019-05-26T09:42:34.391Z,48.43
2019-05-26T09:45:06.582Z,46.68
2019-05-26T09:47:38.598Z,45.80
2019-05-26T09:50:11.019Z,46.76
2019-05-26T09:52:43.030Z,45.91
2019-05-26T09:55:15.315Z,46.66
2019-05-26T09:57:47.365Z,45.99
2019-05-26T10:00:19.664Z,44.60
2019-05-26T10:02:51.744Z,45.15
2019-05-26T10:05:23.743Z,45.65
2019-05-26T10:07:55.787Z,45.74
2019-05-26T10:10:27.845Z,46.08
2019-05-26T10:12:59.909Z,45.31
2019-05-26T10:15:32.052Z,46.46
2019-05-26T10:18:04.365Z,43.95
2019-05-26T10:20:36.441Z,44.34
2019-05-26T10:23:08.436Z,43.98
2019-05-26T10:25:40.499Z,45.57
2019-05-26T10:28:12.491Z,43.79
2019-05-26T10:30:44.509Z,43.25
2019-05-26T10:33:16.572Z,43.03
2019-05-26T10:35:48.584Z,41.13
2019-05-26T10:38:20.589Z,41.90
2019-05-26T10:40:52.623Z,42.61
2019-05-26T10:43:24.666Z,42.66
2019-05-26T10:45:56.711Z,42.31
2019-05-26T10:48:28.734Z,42.15
2019-05-26T10:51:00.717Z,43.60
2019-05-26T10:53:32.761Z,42.04
2019-05-26T10:56:04.810Z,43.37
2019-05-26T10:58:36.857Z,42.97
2019-05-26T11:01:08.874Z,42.97
2019-05-26T11:03:40.869Z,43.07
2019-05-26T11:06:12.875Z,43.68
2019-05-26T11:08:44.899Z,45.02
2019-05-26T11:11:16.885Z,41.67
2019-05-26T11:14:01.785Z,43.48
2019-05-26T11:16:22.838Z,44.80
2019-05-26T11:18:54.819Z,44.22
2019-05-26T11:21:26.880Z,44.42
2019-05-26T11:23:58.838Z,43.26
2019-05-26T11:26:30.837Z,41.81
2019-05-26T11:29:02.858Z,42.52
2019-05-26T11:31:34.936Z,42.34
2019-05-26T11:34:06.958Z,43.26
2019-05-26T11:36:38.953Z,42.97
2019-05-26T11:39:11.028Z,43.60
2019-05-26T11:41:43.057Z,43.67
2019-05-26T11:44:17.898Z,41.45
2019-05-26T11:46:49.065Z,42.87
2019-05-26T11:49:21.030Z,43.99
2019-05-26T11:51:53.076Z,42.97
2019-05-26T11:54:25.053Z,43.05
2019-05-26T11:56:57.136Z,43.51
2019-05-26T11:59:29.123Z,42.63
2019-05-26T12:02:01.130Z,42.81
2019-05-26T12:04:33.133Z,41.16
2019-05-26T12:07:05.132Z,42.14
2019-05-26T12:09:37.103Z,41.56
2019-05-26T12:12:09.228Z,42.37
2019-05-26T12:14:41.201Z,40.03
2019-05-26T12:17:13.219Z,41.20
2019-05-26T12:19:45.213Z,41.44
2019-05-26T12:22:17.220Z,42.69
2019-05-26T12:24:49.239Z,41.29
2019-05-26T12:27:21.257Z,41.01
2019-05-26T12:29:53.239Z,41.88
2019-05-26T12:32:25.241Z,41.29
2019-05-26T12:34:57.218Z,42.29
2019-05-26T12:37:29.212Z,42.16
2019-05-26T12:40:01.238Z,41.67
2019-05-26T12:42:33.209Z,41.17
2019-05-26T12:45:05.362Z,40.23
2019-05-26T12:47:37.513Z,39.32
2019-05-26T12:50:10.399Z,39.93
2019-05-26T12:52:42.388Z,39.46
2019-05-26T12:55:16.179Z,38.88
2019-05-26T12:57:48.200Z,39.02
2019-05-26T13:00:20.484Z,39.68
2019-05-26T13:02:52.526Z,39.90
2019-05-26T13:05:24.537Z,39.60
2019-05-26T13:07:56.846Z,39.45
2019-05-26T13:10:28.857Z,40.17
2019-05-26T13:13:00.942Z,39.75
2019-05-26T13:15:32.938Z,38.68
2019-05-26T13:18:04.955Z,40.97
2019-05-26T13:20:37.761Z,38.11
2019-05-26T13:23:09.779Z,38.67
2019-05-26T13:25:41.757Z,38.56
2019-05-26T13:28:13.763Z,38.37
2019-05-26T13:30:45.765Z,38.62
2019-05-26T13:33:17.792Z,40.75
2019-05-26T13:35:49.759Z,41.36
2019-05-26T13:38:21.889Z,41.24
2019-05-26T13:40:53.931Z,41.12
2019-05-26T13:43:25.920Z,42.16
2019-05-26T13:45:57.948Z,43.83
2019-05-26T13:48:29.946Z,42.48
2019-05-26T13:51:01.997Z,41.97
2019-05-26T13:53:33.972Z,41.04
2019-05-26T13:56:06.012Z,41.89
2019-05-26T13:58:38.015Z,42.51
2019-05-26T14:01:10.023Z,40.99
2019-05-26T14:03:42.109Z,41.58
2019-05-26T14:06:14.148Z,41.83
2019-05-26T14:08:46.135Z,43.08
2019-05-26T14:11:18.263Z,42.71
2019-05-26T14:13:50.333Z,42.78
2019-05-26T14:16:23.197Z,42.16
2019-05-26T14:18:55.730Z,40.80
2019-05-26T14:21:27.726Z,42.10
2019-05-26T14:23:59.841Z,41.55
2019-05-26T14:26:31.856Z,42.59
2019-05-26T14:29:03.850Z,42.05
2019-05-26T14:31:35.868Z,41.25
2019-05-26T14:34:07.923Z,40.85
2019-05-26T14:36:39.955Z,42.09
2019-05-26T14:39:11.979Z,41.54
2019-05-26T14:41:44.025Z,42.52
2019-05-26T14:44:16.026Z,42.79
2019-05-26T14:46:48.033Z,42.05
2019-05-26T14:49:20.165Z,43.43
2019-05-26T14:51:52.181Z,41.67
2019-05-26T14:54:24.219Z,42.50
2019-05-26T14:56:56.239Z,42.78
2019-05-26T14:59:28.206Z,43.40
2019-05-26T15:02:00.216Z,43.37
2019-05-26T15:04:32.224Z,42.85
2019-05-26T15:07:04.259Z,40.22
2019-05-26T15:09:36.269Z,41.42
2019-05-26T15:12:08.289Z,42.98
2019-05-26T15:14:40.285Z,43.73
2019-05-26T15:17:12.447Z,43.49
2019-05-26T15:19:44.444Z,43.76
2019-05-26T15:22:16.478Z,42.69
2019-05-26T15:24:48.487Z,42.75
2019-05-26T15:27:20.466Z,43.21
2019-05-26T15:29:52.481Z,43.67
2019-05-26T15:32:24.494Z,43.54
2019-05-26T15:34:56.535Z,43.08
2019-05-26T15:37:28.506Z,42.61
2019-05-26T15:40:00.533Z,42.86
2019-05-26T15:42:32.516Z,43.68
2019-05-26T15:45:04.829Z,42.72
2019-05-26T15:47:36.923Z,43.00
2019-05-26T15:50:08.968Z,43.49
2019-05-26T15:52:41.291Z,43.41
2019-05-26T15:55:13.723Z,44.04
2019-05-26T15:57:45.783Z,43.82
2019-05-26T16:00:18.279Z,44.02
2019-05-26T16:02:50.325Z,44.35
2019-05-26T16:05:22.406Z,44.18
2019-05-26T16:07:54.429Z,44.63
2019-05-26T16:10:26.457Z,43.62
2019-05-26T16:12:58.506Z,44.27
2019-05-26T16:15:30.554Z,43.75
2019-05-26T16:18:02.656Z,43.41
2019-05-26T16:20:34.684Z,44.00
2019-05-26T16:23:08.816Z,44.33
2019-05-26T16:25:40.659Z,44.16
2019-05-26T16:28:12.703Z,44.49
2019-05-26T16:30:44.784Z,45.08
2019-05-26T16:33:16.817Z,44.96
2019-05-26T16:35:48.969Z,45.67
2019-05-26T16:38:21.034Z,44.39
2019-05-26T16:40:53.149Z,44.73
2019-05-26T16:43:25.152Z,45.21
2019-05-26T16:45:57.218Z,45.64
2019-05-26T16:48:29.211Z,46.04
2019-05-26T16:51:01.351Z,45.80
2019-05-26T16:53:33.409Z,46.45
2019-05-26T16:56:05.535Z,46.65
2019-05-26T16:58:37.512Z,46.02
2019-05-26T17:01:09.581Z,45.57
2019-05-26T17:03:41.581Z,46.36
2019-05-26T17:06:13.640Z,46.41
2019-05-26T17:08:45.619Z,46.92
2019-05-26T17:11:17.658Z,46.82
2019-05-26T17:13:49.692Z,46.86
2019-05-26T17:16:21.680Z,46.69
2019-05-26T17:18:53.666Z,46.91
2019-05-26T17:21:25.731Z,47.35
2019-05-26T17:23:57.745Z,47.46
2019-05-26T17:26:29.750Z,46.92
2019-05-26T17:29:01.761Z,47.43
2019-05-26T17:31:33.805Z,47.62
2019-05-26T17:34:05.794Z,47.14
2019-05-26T17:36:37.888Z,46.82
2019-05-26T17:39:09.880Z,47.05
2019-05-26T17:41:42.101Z,47.26
2019-05-26T17:44:14.130Z,47.72
2019-05-26T17:46:46.292Z,48.07
2019-05-26T17:49:18.322Z,47.81
2019-05-26T17:51:50.503Z,48.04
2019-05-26T17:54:22.575Z,47.92
2019-05-26T17:56:54.700Z,48.25
2019-05-26T17:59:26.794Z,48.47
2019-05-26T18:01:58.856Z,48.71
2019-05-26T18:04:30.999Z,48.40
2019-05-26T18:07:03.168Z,48.75
2019-05-26T18:09:43.643Z,48.89
2019-05-26T18:12:09.232Z,49.65
2019-05-26T18:14:41.387Z,50.56
2019-05-26T18:17:13.572Z,51.50
2019-05-26T18:19:45.661Z,51.38
2019-05-26T18:22:17.763Z,51.39
2019-05-26T18:24:56.437Z,51.09
2019-05-26T18:27:23.902Z,51.22
2019-05-26T18:29:56.074Z,51.39
2019-05-26T18:32:28.092Z,51.11
2019-05-26T18:35:00.250Z,51.63
2019-05-26T18:37:32.337Z,51.64
2019-05-26T18:40:05.034Z,51.81
2019-05-26T18:42:37.078Z,52.28
2019-05-26T18:45:09.296Z,52.18
2019-05-26T18:47:41.354Z,53.32
2019-05-26T18:50:13.754Z,52.90
2019-05-26T18:52:45.860Z,53.50
2019-05-26T18:55:17.941Z,53.71
2019-05-26T18:57:50.057Z,53.68
2019-05-26T19:00:22.251Z,54.58
2019-05-26T19:02:54.550Z,54.91
2019-05-26T19:05:33.813Z,55.14
2019-05-26T19:08:01.557Z,55.95
2019-05-26T19:10:33.661Z,56.70
2019-05-26T19:13:05.663Z,56.82
2019-05-26T19:15:37.785Z,57.44
2019-05-26T19:18:19.428Z,58.00
2019-05-26T19:20:43.924Z,58.30
2019-05-26T19:23:15.976Z,58.83
2019-05-26T19:25:48.042Z,59.63
2019-05-26T19:28:20.063Z,60.15
2019-05-26T19:30:52.082Z,61.36
2019-05-26T19:33:24.170Z,61.53
2019-05-26T19:35:56.405Z,62.71
2019-05-26T19:38:28.449Z,63.93
2019-05-26T19:41:00.668Z,64.61
2019-05-26T19:43:32.787Z,64.74
2019-05-26T19:46:04.907Z,65.76
2019-05-26T19:48:37.486Z,65.71
2019-05-26T19:51:09.675Z,66.22
2019-05-26T19:53:41.766Z,66.60
2019-05-26T19:56:13.872Z,66.92
2019-05-26T19:58:45.933Z,67.23
2019-05-26T20:01:18.062Z,67.39
2019-05-26T20:03:50.113Z,67.59
2019-05-26T20:06:22.229Z,67.44
2019-05-26T20:08:54.316Z,67.54
2019-05-26T20:11:26.357Z,67.75
2019-05-26T20:13:58.466Z,67.40
2019-05-26T20:16:31.015Z,67.61
2019-05-26T20:19:03.553Z,67.47
2019-05-26T20:21:35.666Z,67.53
2019-05-26T20:24:07.886Z,67.82
2019-05-26T20:26:40.027Z,68.12
2019-05-26T20:29:12.033Z,68.23
2019-05-26T20:31:44.062Z,67.89
2019-05-26T20:34:16.072Z,68.18
2019-05-26T20:36:48.239Z,67.71
2019-05-26T20:39:20.260Z,67.86
2019-05-26T20:41:52.371Z,67.30
2019-05-26T20:44:24.396Z,68.59
2019-05-26T20:46:56.550Z,68.04
2019-05-26T20:49:44.375Z,67.60
2019-05-26T20:52:02.592Z,67.41
2019-05-26T20:54:34.765Z,67.46
2019-05-26T20:57:06.790Z,68.04
2019-05-26T20:59:38.979Z,68.45
2019-05-26T21:02:11.059Z,68.57
2019-05-26T21:04:43.150Z,68.44
2019-05-26T21:07:15.143Z,68.48
2019-05-26T21:09:47.251Z,69.06
2019-05-26T21:12:19.257Z,68.80
2019-05-26T21:14:51.301Z,69.05
2019-05-26T21:17:23.334Z,69.36
2019-05-26T21:19:55.377Z,70.07
2019-05-26T21:22:27.380Z,70.15
2019-05-26T21:24:59.399Z,69.99
2019-05-26T21:27:31.408Z,69.52
2019-05-26T21:30:04.461Z,69.75
2019-05-26T21:32:36.473Z,69.85
2019-05-26T21:35:08.778Z,69.34
2019-05-26T21:37:40.733Z,68.27
2019-05-26T21:40:13.104Z,68.61
2019-05-26T21:42:45.216Z,69.60
2019-05-26T21:45:17.255Z,69.22
2019-05-26T21:47:49.291Z,70.33
2019-05-26T21:50:21.338Z,70.50
2019-05-26T21:52:53.299Z,70.29
2019-05-26T21:55:25.286Z,68.46
2019-05-26T21:57:57.340Z,68.72
2019-05-26T22:00:34.206Z,68.82
2019-05-26T22:03:06.318Z,69.18
2019-05-26T22:05:38.429Z,69.38
2019-05-26T22:08:10.422Z,70.46
2019-05-26T22:10:42.386Z,70.55
2019-05-26T22:13:14.344Z,71.08
2019-05-26T22:15:46.398Z,71.32
2019-05-26T22:18:18.381Z,71.57
2019-05-26T22:20:50.429Z,72.16
2019-05-26T22:23:22.373Z,71.95
2019-05-26T22:25:54.389Z,71.55
2019-05-26T22:28:26.400Z,71.09
2019-05-26T22:30:58.408Z,71.16
2019-05-26T22:33:30.368Z,71.46
2019-05-26T22:36:02.391Z,71.51
2019-05-26T22:38:34.356Z,71.43
2019-05-26T22:41:06.317Z,71.60
2019-05-26T22:43:38.276Z,71.87
2019-05-26T22:46:10.318Z,72.19
2019-05-26T22:48:42.339Z,72.00
2019-05-26T22:51:14.333Z,72.20
2019-05-26T22:53:46.329Z,71.58
2019-05-26T22:56:18.290Z,72.35
2019-05-26T22:58:50.246Z,72.26
2019-05-26T23:01:22.250Z,71.96
2019-05-26T23:03:54.175Z,72.09
2019-05-26T23:06:26.149Z,72.41
2019-05-26T23:08:58.104Z,72.96
2019-05-26T23:11:30.094Z,73.17
2019-05-26T23:14:02.071Z,72.30
2019-05-26T23:16:34.039Z,72.37
2019-05-26T23:19:18.645Z,71.92
2019-05-26T23:21:39.953Z,72.59
2019-05-26T23:24:11.893Z,72.75
2019-05-26T23:26:43.879Z,72.74
2019-05-26T23:29:15.842Z,73.78
2019-05-26T23:31:47.811Z,73.78
2019-05-26T23:34:19.774Z,73.72
2019-05-26T23:36:51.724Z,73.70
2019-05-26T23:39:23.709Z,74.20
2019-05-26T23:41:55.699Z,73.93
2019-05-26T23:44:27.660Z,73.82
2019-05-26T23:46:59.612Z,73.98
2019-05-26T23:49:31.585Z,74.66
2019-05-26T23:52:03.549Z,74.85
2019-05-26T23:54:35.535Z,75.12
2019-05-26T23:57:07.498Z,74.66
2019-05-26T23:59:39.481Z,75.05
